Time;durP1;ratioP1;P1;durP2;ratioP2;P2;SDS_P1;SDS_P2;PMS_P1;PMS_P2;Temp;Humidity;BMP_temperature;BMP_pressure;BME280_temperature;BME280_humidity;BME280_pressure;Samples;Min_cycle;Max_cycle;Signal;HPM_P1;HPM_P2
2022/12/24 00:01:57;;;;;;;50.77;26.23;;;1.60;99.90;;;;;;10465234;28;20272;-77
2022/12/24 00:07:18;;;;;;;42.57;23.67;;;1.40;99.90;;;;;;10479543;28;20255;-77
2022/12/24 00:12:40;;;;;;;48.90;25.60;;;1.40;99.90;;;;;;10512416;28;20397;-77
2022/12/24 00:18:01;;;;;;;67.73;29.67;;;1.30;99.90;;;;;;10479455;28;20196;-77
2022/12/24 00:23:22;;;;;;;71.07;32.83;;;1.20;99.90;;;;;;10478584;28;20183;-77
2022/12/24 00:28:43;;;;;;;73.93;34.40;;;1.20;99.90;;;;;;10478502;28;20250;-77
2022/12/24 00:34:04;;;;;;;78.93;35.70;;;1.10;99.90;;;;;;10463939;28;20194;-77
2022/12/24 00:39:26;;;;;;;75.57;38.10;;;1.00;99.90;;;;;;10478198;28;20429;-78
2022/12/24 00:44:47;;;;;;;76.83;38.97;;;0.90;99.90;;;;;;10478932;28;20188;-77
2022/12/24 00:50:08;;;;;;;88.40;41.10;;;0.90;99.90;;;;;;10477315;28;20231;-78
2022/12/24 00:55:29;;;;;;;85.80;38.67;;;0.90;99.90;;;;;;10477506;28;20485;-79
2022/12/24 01:00:51;;;;;;;82.90;37.33;;;0.90;99.90;;;;;;10477314;28;20206;-79
2022/12/24 01:06:17;;;;;;;69.73;34.97;;;0.80;99.90;;;;;;10476675;28;20215;-79
2022/12/24 01:11:39;;;;;;;78.83;35.87;;;0.70;99.90;;;;;;10477329;28;20540;-79
2022/12/24 01:17:00;;;;;;;83.53;40.30;;;0.60;99.90;;;;;;10465605;28;20202;-79
2022/12/24 01:22:21;;;;;;;76.07;38.40;;;0.60;99.90;;;;;;10462850;28;20393;-80
2022/12/24 01:27:43;;;;;;;81.63;41.00;;;0.50;99.90;;;;;;10462805;28;20234;-78
2022/12/24 01:33:04;;;;;;;95.17;46.50;;;0.40;99.90;;;;;;10462337;28;20204;-79
2022/12/24 01:38:25;;;;;;;78.40;39.67;;;0.40;99.90;;;;;;10477422;28;20502;-78
2022/12/24 01:43:46;;;;;;;90.37;43.10;;;0.30;99.90;;;;;;10462281;28;20202;-80
2022/12/24 01:49:12;;;;;;;88.90;42.10;;;0.30;99.90;;;;;;10462019;28;20223;-79
2022/12/24 01:54:40;;;;;;;74.57;37.13;;;0.20;99.90;;;;;;10476278;28;20224;-79
2022/12/24 02:00:05;;;;;;;78.60;36.43;;;0.10;99.90;;;;;;10477120;28;20194;-79
2022/12/24 02:05:54;;;;;;;74.13;34.77;;;0.10;99.90;;;;;;10475669;28;20227;-79
2022/12/24 02:11:19;;;;;;;72.47;33.73;;;0.00;99.90;;;;;;10476123;28;20242;-78
2022/12/24 02:17:09;;;;;;;72.87;34.33;;;0.00;99.90;;;;;;10479732;28;20393;-79
2022/12/24 02:22:42;;;;;;;74.07;36.20;;;0.00;99.90;;;;;;10469061;28;20225;-79
2022/12/24 02:28:03;;;;;;;75.40;34.50;;;-0.10;99.90;;;;;;10483441;28;20217;-78
2022/12/24 02:34:11;;;;;;;70.60;34.23;;;-0.10;99.90;;;;;;10482664;28;20253;-78
2022/12/24 02:39:46;;;;;;;77.73;32.27;;;-0.10;99.90;;;;;;10477020;28;20270;-78
2022/12/24 02:45:15;;;;;;;59.67;29.27;;;-0.20;99.90;;;;;;10521224;28;20201;-79
2022/12/24 02:50:36;;;;;;;80.10;31.30;;;-0.20;99.90;;;;;;10521392;28;20237;-78
2022/12/24 02:56:12;;;;;;;62.50;26.90;;;-0.20;99.90;;;;;;10490198;28;20210;-78
2022/12/24 03:01:53;;;;;;;62.23;33.17;;;-0.10;99.90;;;;;;10520725;28;20209;-79
2022/12/24 03:07:20;;;;;;;51.90;24.33;;;0.00;99.90;;;;;;10511117;28;20284;-78
2022/12/24 03:12:52;;;;;;;43.60;19.53;;;0.10;99.90;;;;;;10439703;28;20605;-78
2022/12/24 03:18:16;;;;;;;45.17;20.67;;;0.20;99.90;;;;;;10440931;28;20412;-77
2022/12/24 03:23:38;;;;;;;45.20;22.80;;;0.30;99.90;;;;;;10425556;28;20213;-78
2022/12/24 03:29:03;;;;;;;31.23;16.00;;;0.40;99.90;;;;;;10440263;28;20239;-79
2022/12/24 03:34:24;;;;;;;25.27;14.23;;;0.40;99.90;;;;;;10425182;28;20206;-79
2022/12/24 03:39:45;;;;;;;24.50;13.50;;;0.40;99.90;;;;;;10438851;28;20515;-79
2022/12/24 03:45:07;;;;;;;26.57;13.63;;;0.40;99.90;;;;;;10438550;28;20272;-79
2022/12/24 03:50:28;;;;;;;23.00;14.43;;;0.40;99.90;;;;;;10424474;28;20232;-79
2022/12/24 03:55:49;;;;;;;20.53;12.27;;;0.40;99.90;;;;;;10439109;28;20286;-79
2022/12/24 04:01:10;;;;;;;16.60;10.07;;;0.50;99.90;;;;;;10439265;28;20242;-78
2022/12/24 04:06:31;;;;;;;14.80;9.20;;;0.50;99.90;;;;;;10458420;28;20260;-78
2022/12/24 04:11:52;;;;;;;13.97;8.20;;;0.60;99.90;;;;;;10479106;28;20234;-79
2022/12/24 04:17:13;;;;;;;13.77;8.97;;;0.80;99.90;;;;;;10479085;28;20444;-79
2022/12/24 04:22:34;;;;;;;12.07;7.70;;;0.80;99.90;;;;;;10478858;28;20195;-79
2022/12/24 04:27:56;;;;;;;17.60;9.27;;;0.90;99.90;;;;;;10479392;28;20483;-79
2022/12/24 04:33:17;;;;;;;18.90;10.40;;;1.00;99.90;;;;;;10479386;28;20191;-79
2022/12/24 04:38:38;;;;;;;12.23;7.87;;;1.00;99.90;;;;;;10477457;28;20392;-78
2022/12/24 04:43:59;;;;;;;10.23;6.63;;;1.10;99.90;;;;;;10478142;28;20191;-79
2022/12/24 04:49:20;;;;;;;11.03;6.07;;;1.20;99.90;;;;;;10477572;28;20231;-79
2022/12/24 04:54:41;;;;;;;11.40;7.27;;;1.20;99.90;;;;;;10477375;28;20221;-79
2022/12/24 05:00:07;;;;;;;10.40;6.00;;;1.30;99.90;;;;;;10478581;28;20474;-79
2022/12/24 05:05:28;;;;;;;9.87;5.90;;;1.40;99.90;;;;;;10463350;28;20195;-78
2022/12/24 05:10:57;;;;;;;33.50;13.27;;;1.40;99.90;;;;;;10475938;28;20246;-79
2022/12/24 05:16:20;;;;;;;34.50;14.70;;;1.50;99.90;;;;;;10478185;28;20196;-78
2022/12/24 05:21:41;;;;;;;14.33;7.93;;;1.60;99.90;;;;;;10476784;28;20202;-79
2022/12/24 05:27:02;;;;;;;18.03;8.27;;;1.60;99.90;;;;;;10476477;28;20212;-78
2022/12/24 05:32:23;;;;;;;15.10;8.80;;;1.70;99.90;;;;;;10476608;28;20648;-79
2022/12/24 05:37:44;;;;;;;19.97;11.37;;;1.70;99.90;;;;;;10476655;28;20203;-79
2022/12/24 05:43:06;;;;;;;10.00;7.63;;;1.70;99.90;;;;;;10476831;28;20214;-79
2022/12/24 05:48:27;;;;;;;7.17;5.30;;;1.70;99.90;;;;;;10462457;28;20462;-79
2022/12/24 05:53:50;;;;;;;35.17;16.80;;;1.70;99.90;;;;;;10483853;28;20460;-78
2022/12/24 05:59:11;;;;;;;41.47;15.47;;;1.70;99.90;;;;;;10470091;28;20203;-79
2022/12/24 06:04:32;;;;;;;25.93;10.57;;;1.60;99.90;;;;;;10455894;28;20372;-79
2022/12/24 06:09:53;;;;;;;18.03;8.17;;;1.60;99.90;;;;;;10468555;28;20572;-79
2022/12/24 06:15:15;;;;;;;19.10;7.53;;;1.70;99.90;;;;;;10483753;28;20438;-79
2022/12/24 06:20:39;;;;;;;18.17;7.07;;;1.60;99.90;;;;;;10484254;28;20194;-78
2022/12/24 06:26:01;;;;;;;13.57;6.93;;;1.60;99.90;;;;;;10484477;28;20286;-79
2022/12/24 06:31:23;;;;;;;15.10;9.43;;;1.50;99.90;;;;;;10483843;28;20239;-79
2022/12/24 06:36:44;;;;;;;16.40;10.60;;;1.40;99.90;;;;;;10483654;28;20263;-78
2022/12/24 06:42:05;;;;;;;20.13;12.07;;;1.30;99.90;;;;;;10483616;28;20199;-78
2022/12/24 06:47:26;;;;;;;23.27;12.43;;;1.10;99.90;;;;;;10483425;28;20202;-78
2022/12/24 06:52:47;;;;;;;28.47;13.20;;;1.10;99.90;;;;;;10467757;28;20240;-78
2022/12/24 06:58:08;;;;;;;56.50;26.40;;;1.00;99.90;;;;;;10482165;28;20386;-79
2022/12/24 07:03:30;;;;;;;52.30;23.47;;;1.00;99.90;;;;;;10482436;28;20190;-78
2022/12/24 07:08:52;;;;;;;32.73;18.40;;;0.90;99.90;;;;;;10481589;28;20228;-78
2022/12/24 07:14:12;;;;;;;24.83;14.83;;;0.90;99.90;;;;;;10481314;28;20252;-78
2022/12/24 07:19:34;;;;;;;19.03;10.77;;;0.90;99.90;;;;;;10481799;28;20219;-79
2022/12/24 07:24:55;;;;;;;17.13;11.23;;;0.80;99.90;;;;;;10480843;28;20549;-79
2022/12/24 07:30:16;;;;;;;21.73;11.80;;;0.80;99.90;;;;;;10481646;28;20229;-79
2022/12/24 07:35:37;;;;;;;21.47;13.20;;;0.80;99.90;;;;;;10480108;28;20382;-80
2022/12/24 07:40:58;;;;;;;33.13;17.00;;;0.70;99.90;;;;;;10466075;28;20206;-79
2022/12/24 07:46:19;;;;;;;169.80;51.00;;;0.80;99.90;;;;;;10480163;28;20226;-79
2022/12/24 07:51:41;;;;;;;261.97;80.97;;;0.90;99.90;;;;;;10479616;28;20255;-79
2022/12/24 07:57:02;;;;;;;170.93;56.10;;;0.90;99.90;;;;;;10465537;28;20206;-79
2022/12/24 08:02:23;;;;;;;100.03;34.77;;;1.00;99.90;;;;;;10479286;28;20201;-79
2022/12/24 08:07:45;;;;;;;57.70;25.20;;;1.10;99.90;;;;;;10464073;28;20251;-79
2022/12/24 08:13:06;;;;;;;39.83;19.77;;;1.10;99.90;;;;;;10466790;28;20231;-79
2022/12/24 08:18:27;;;;;;;39.20;20.20;;;1.00;99.90;;;;;;10464436;28;20265;-79
2022/12/24 08:23:49;;;;;;;43.07;24.20;;;1.10;99.90;;;;;;10464417;28;20203;-79
2022/12/24 08:29:10;;;;;;;48.53;25.77;;;1.10;99.90;;;;;;10464897;28;20215;-79
2022/12/24 08:34:31;;;;;;;63.90;26.50;;;1.20;99.90;;;;;;10479202;28;20266;-79
2022/12/24 08:39:52;;;;;;;61.67;31.17;;;1.50;99.90;;;;;;10479062;28;20193;-79
2022/12/24 08:45:13;;;;;;;66.73;30.43;;;1.70;99.90;;;;;;10478838;28;20196;-79
2022/12/24 08:50:37;;;;;;;51.07;27.20;;;1.70;99.90;;;;;;10478753;28;20218;-79
2022/12/24 08:56:03;;;;;;;59.17;29.27;;;1.80;99.90;;;;;;10477441;28;20223;-79
2022/12/24 09:01:25;;;;;;;65.27;29.87;;;1.70;99.90;;;;;;10477377;28;20278;-79
2022/12/24 09:06:46;;;;;;;44.27;23.87;;;1.70;99.90;;;;;;10476945;28;20200;-79
2022/12/24 09:12:07;;;;;;;81.33;30.30;;;1.60;99.90;;;;;;10492917;28;20259;-79
2022/12/24 09:17:28;;;;;;;80.10;36.87;;;1.70;99.90;;;;;;10476518;28;20222;-79
2022/12/24 09:22:49;;;;;;;83.07;33.53;;;1.70;99.90;;;;;;10463030;28;20398;-79
2022/12/24 09:28:11;;;;;;;82.00;39.67;;;1.70;99.90;;;;;;10471220;28;20418;-78
2022/12/24 09:33:35;;;;;;;71.00;36.23;;;1.80;99.90;;;;;;10485814;28;20219;-78
2022/12/24 09:38:56;;;;;;;74.67;38.20;;;1.80;99.90;;;;;;10470561;28;20207;-78
2022/12/24 09:44:23;;;;;;;90.63;40.00;;;1.90;99.90;;;;;;10470424;28;20249;-79
2022/12/24 09:49:49;;;;;;;86.00;37.10;;;1.80;99.90;;;;;;10484619;28;20274;-79
2022/12/24 09:55:31;;;;;;;82.70;37.30;;;1.90;99.90;;;;;;10485480;28;20414;-78
2022/12/24 10:00:53;;;;;;;85.10;41.60;;;1.90;99.90;;;;;;10484154;28;20198;-79
2022/12/24 10:06:24;;;;;;;77.20;38.40;;;1.90;99.90;;;;;;10469658;28;20207;-77
2022/12/24 10:11:48;;;;;;;58.53;31.03;;;2.00;99.90;;;;;;10486063;28;20235;-77
2022/12/24 10:17:15;;;;;;;45.53;23.70;;;2.10;99.90;;;;;;10469552;28;20196;-79
2022/12/24 10:22:58;;;;;;;29.00;16.57;;;2.10;99.90;;;;;;10483529;28;20198;-78
2022/12/24 10:28:28;;;;;;;19.80;11.97;;;2.30;99.90;;;;;;10482935;28;20192;-78
2022/12/24 10:34:00;;;;;;;26.63;15.17;;;2.40;99.90;;;;;;10468557;28;20258;-78
2022/12/24 10:39:25;;;;;;;19.57;11.90;;;2.40;99.90;;;;;;10468026;28;20208;-78
2022/12/24 10:44:51;;;;;;;20.77;12.90;;;2.50;99.90;;;;;;10483094;28;20207;-78
2022/12/24 10:50:20;;;;;;;34.77;16.33;;;2.60;99.90;;;;;;10482189;28;20287;-78
2022/12/24 10:55:41;;;;;;;41.77;20.30;;;2.80;99.90;;;;;;10482019;28;20231;-78
2022/12/24 11:01:03;;;;;;;78.20;31.67;;;3.00;99.90;;;;;;10482741;28;20206;-78
2022/12/24 11:06:25;;;;;;;49.50;19.20;;;3.30;99.90;;;;;;10481573;28;20226;-79
2022/12/24 11:11:46;;;;;;;24.90;9.83;;;3.50;99.90;;;;;;10467121;28;20225;-79
2022/12/24 11:17:20;;;;;;;32.07;11.73;;;4.10;99.90;;;;;;10482397;28;20191;-79
2022/12/24 11:22:48;;;;;;;91.03;31.80;;;5.40;36.90;;;;;;10480903;28;20211;-78
2022/12/24 11:28:11;;;;;;;23.70;10.20;;;6.10;1.00;;;;;;10480533;28;20202;-79
2022/12/24 11:33:49;;;;;;;11.77;7.13;;;6.60;1.00;;;;;;10480719;28;20218;-79
2022/12/24 11:39:19;;;;;;;10.50;5.07;;;6.70;1.00;;;;;;10480466;28;20190;-80
2022/12/24 11:44:48;;;;;;;12.47;6.87;;;6.70;1.00;;;;;;10480350;28;20188;-79
2022/12/24 11:50:31;;;;;;;13.80;6.93;;;6.10;99.90;;;;;;10464604;28;20290;-78
2022/12/24 11:55:56;;;;;;;9.23;5.60;;;5.80;1.00;;;;;;10479643;28;20485;-78
2022/12/24 12:01:36;;;;;;;13.97;8.50;;;5.60;1.00;;;;;;10479652;28;20199;-79
2022/12/24 12:07:32;;;;;;;21.63;9.97;;;5.20;99.90;;;;;;10465044;28;20490;-79
2022/12/24 12:13:02;;;;;;;24.03;12.53;;;4.70;99.90;;;;;;10459630;28;20244;-79
2022/12/24 12:18:36;;;;;;;22.03;12.40;;;4.60;1.00;;;;;;10476274;28;20199;-79
2022/12/24 12:24:04;;;;;;;21.33;13.93;;;4.40;1.00;;;;;;10475674;28;20199;-79
2022/12/24 12:29:32;;;;;;;22.60;12.40;;;4.20;13.60;;;;;;10461710;28;20206;-79
2022/12/24 12:35:02;;;;;;;22.53;12.27;;;4.00;99.90;;;;;;10445286;28;20234;-79
2022/12/24 12:40:39;;;;;;;29.93;15.27;;;3.90;99.90;;;;;;10474962;28;20280;-79
2022/12/24 12:46:12;;;;;;;30.07;16.17;;;3.80;1.00;;;;;;10448661;28;20451;-79
2022/12/24 12:52:07;;;;;;;29.40;18.73;;;3.70;1.00;;;;;;10437506;28;20222;-79
2022/12/24 12:57:35;;;;;;;48.40;25.83;;;3.60;1.00;;;;;;10437355;28;20409;-79
2022/12/24 13:03:20;;;;;;;57.07;31.27;;;3.50;1.00;;;;;;10435846;28;20209;-79
2022/12/24 13:09:29;;;;;;;54.27;31.73;;;3.50;1.00;;;;;;10473595;28;20512;-78
2022/12/24 13:15:03;;;;;;;85.70;40.87;;;3.50;1.00;;;;;;10499346;28;20498;-79
2022/12/24 13:20:32;;;;;;;68.03;34.47;;;3.40;1.00;;;;;;10499498;28;20204;-79
2022/12/24 13:25:56;;;;;;;102.50;43.83;;;3.30;1.00;;;;;;10515858;28;20259;-78
2022/12/24 13:31:18;;;;;;;118.97;53.93;;;3.20;1.00;;;;;;10515776;28;20306;-79
2022/12/24 13:37:03;;;;;;;65.93;33.43;;;3.10;1.00;;;;;;10501700;28;20205;-79
2022/12/24 13:42:48;;;;;;;65.47;33.47;;;3.00;1.00;;;;;;10515738;28;20207;-79
2022/12/24 13:48:09;;;;;;;77.60;37.83;;;2.90;1.00;;;;;;10491013;28;20470;-78
2022/12/24 13:53:39;;;;;;;77.93;39.17;;;2.80;1.00;;;;;;10476458;28;20219;-79
2022/12/24 13:59:36;;;;;;;87.20;45.00;;;2.70;1.00;;;;;;10476569;28;20217;-79
2022/12/24 14:05:01;;;;;;;101.17;50.07;;;2.70;1.00;;;;;;10452315;28;20213;-78
2022/12/24 14:10:35;;;;;;;92.90;48.57;;;2.70;1.00;;;;;;10475976;28;20265;-79
2022/12/24 14:15:56;;;;;;;93.67;48.17;;;2.60;1.00;;;;;;10484668;28;20211;-78
2022/12/24 14:21:22;;;;;;;112.50;54.47;;;2.60;1.00;;;;;;10483246;28;20199;-79
2022/12/24 14:26:47;;;;;;;141.27;70.80;;;2.50;1.00;;;;;;10483519;28;20194;-77
2022/12/24 14:32:14;;;;;;;165.00;77.13;;;2.40;5.80;;;;;;10483124;28;20225;-78
2022/12/24 14:37:37;;;;;;;150.27;67.70;;;2.30;10.10;;;;;;10483131;28;20192;-78
2022/12/24 14:43:19;;;;;;;127.93;62.03;;;2.20;25.20;;;;;;10483919;28;20193;-78
2022/12/24 14:48:55;;;;;;;114.43;58.70;;;2.20;55.90;;;;;;10482567;28;20191;-78
2022/12/24 14:54:28;;;;;;;109.17;55.53;;;2.10;45.50;;;;;;10482088;28;20560;-78
2022/12/24 15:00:01;;;;;;;343.20;136.43;;;2.00;54.30;;;;;;10481811;28;20234;-78
2022/12/24 15:05:28;;;;;;;307.17;124.10;;;2.00;96.50;;;;;;10481240;28;20196;-79
2022/12/24 15:10:52;;;;;;;427.60;147.63;;;2.00;91.00;;;;;;10495221;28;20239;-79
2022/12/24 15:16:22;;;;;;;597.93;215.10;;;2.00;87.20;;;;;;10481606;28;20192;-79
2022/12/24 15:21:44;;;;;;;678.40;261.10;;;2.00;90.70;;;;;;10466587;28;20200;-78
2022/12/24 15:27:15;;;;;;;653.83;254.43;;;2.00;99.90;;;;;;10467086;28;20195;-79
2022/12/24 15:32:36;;;;;;;604.57;233.13;;;1.90;99.90;;;;;;10481504;28;20557;-78
2022/12/24 15:37:58;;;;;;;534.97;201.07;;;1.90;99.90;;;;;;10466460;28;20198;-79
2022/12/24 15:43:19;;;;;;;454.10;178.93;;;1.90;99.90;;;;;;10466362;28;20386;-79
2022/12/24 15:48:44;;;;;;;413.93;165.30;;;1.90;99.90;;;;;;10481261;28;20483;-78
2022/12/24 15:54:11;;;;;;;371.37;148.20;;;1.80;99.90;;;;;;10480074;28;20577;-79
2022/12/24 15:59:36;;;;;;;305.07;129.10;;;1.70;99.90;;;;;;10480909;28;20486;-78
2022/12/24 16:05:38;;;;;;;226.13;102.47;;;1.60;99.90;;;;;;10479268;28;20211;-79
2022/12/24 16:11:05;;;;;;;186.83;93.93;;;1.50;99.90;;;;;;10517556;28;20310;-78
2022/12/24 16:16:39;;;;;;;201.60;107.87;;;1.50;99.90;;;;;;10517685;28;20215;-79
2022/12/24 16:22:30;;;;;;;216.00;110.97;;;1.40;99.90;;;;;;10517755;28;20526;-79
2022/12/24 16:27:43;;;;;;;217.70;110.80;;;1.30;99.90;;;;;;10517151;28;20576;-79
2022/12/24 16:33:05;;;;;;;218.37;112.63;;;1.20;99.90;;;;;;10485738;28;20250;-78
2022/12/24 16:39:21;;;;;;;190.17;100.07;;;1.20;99.90;;;;;;10494092;28;20241;-79
2022/12/24 16:44:07;;;;;;;195.43;99.73;;;1.00;97.90;;;;;;10477515;28;20413;-78
2022/12/24 16:49:28;;;;;;;208.13;94.37;;;1.00;99.90;;;;;;10478935;28;20453;-79
2022/12/24 16:54:49;;;;;;;167.53;82.17;;;0.90;99.90;;;;;;10463791;28;20222;-79
2022/12/24 17:00:19;;;;;;;167.10;76.30;;;0.90;99.90;;;;;;10463746;28;20195;-78
2022/12/24 17:05:42;;;;;;;113.23;55.03;;;0.90;99.90;;;;;;10462999;28;20229;-78
2022/12/24 17:11:03;;;;;;;92.30;49.10;;;1.00;99.90;;;;;;10477606;28;20488;-78
2022/12/24 17:16:24;;;;;;;95.17;45.87;;;1.10;99.90;;;;;;10477925;28;20263;-78
2022/12/24 17:21:45;;;;;;;76.80;40.47;;;1.10;99.90;;;;;;10477224;28;20202;-78
2022/12/24 17:27:06;;;;;;;64.37;35.43;;;1.00;99.90;;;;;;10476568;28;20211;-78
2022/12/24 17:32:27;;;;;;;54.23;28.43;;;1.00;99.90;;;;;;10476807;28;20468;-78
2022/12/24 17:37:48;;;;;;;46.50;25.23;;;1.00;99.90;;;;;;10477120;28;20369;-78
2022/12/24 17:43:10;;;;;;;39.57;22.90;;;0.90;99.90;;;;;;10476952;28;20648;-78
2022/12/24 17:48:31;;;;;;;56.53;29.37;;;0.90;99.90;;;;;;10470046;28;20233;-78
2022/12/24 17:53:52;;;;;;;54.83;28.80;;;0.90;99.90;;;;;;10484893;28;20234;-78
2022/12/24 17:59:13;;;;;;;50.73;27.10;;;0.90;99.90;;;;;;10485361;28;20190;-78
2022/12/24 18:04:34;;;;;;;61.77;30.73;;;0.90;99.90;;;;;;10469788;28;20252;-79
2022/12/24 18:09:55;;;;;;;62.20;30.90;;;0.90;99.90;;;;;;10483742;28;20261;-78
2022/12/24 18:15:21;;;;;;;57.97;28.83;;;0.90;99.90;;;;;;10483566;28;20225;-78
2022/12/24 18:20:42;;;;;;;61.73;29.37;;;0.90;99.90;;;;;;10483438;28;20206;-78
2022/12/24 18:26:06;;;;;;;51.83;27.33;;;1.00;99.90;;;;;;10469721;28;20207;-78
2022/12/24 18:31:29;;;;;;;57.97;27.93;;;0.90;99.90;;;;;;10483111;28;20237;-79
2022/12/24 18:36:50;;;;;;;49.00;25.33;;;0.90;99.90;;;;;;10483265;28;20192;-78
2022/12/24 18:42:14;;;;;;;54.93;26.53;;;1.00;99.90;;;;;;10482655;28;20198;-78
2022/12/24 18:47:35;;;;;;;55.53;27.30;;;0.90;99.90;;;;;;10482787;28;20270;-78
2022/12/24 18:52:57;;;;;;;60.27;28.90;;;0.90;99.90;;;;;;10482387;28;20227;-78
2022/12/24 18:58:18;;;;;;;57.67;27.80;;;0.90;99.90;;;;;;10481653;28;20187;-78
2022/12/24 19:03:40;;;;;;;62.47;30.23;;;0.90;99.90;;;;;;10482267;28;20190;-78
2022/12/24 19:09:02;;;;;;;63.83;30.17;;;1.00;99.90;;;;;;10437287;28;20608;-78
2022/12/24 19:14:23;;;;;;;95.50;40.83;;;1.00;99.90;;;;;;10482030;28;20226;-78
2022/12/24 19:19:44;;;;;;;83.37;38.70;;;1.00;99.90;;;;;;10467264;28;20202;-78
2022/12/24 19:25:06;;;;;;;81.73;36.63;;;1.00;99.90;;;;;;10481369;28;20445;-78
2022/12/24 19:30:27;;;;;;;63.83;31.37;;;0.90;99.90;;;;;;10481196;28;20223;-78
2022/12/24 19:35:48;;;;;;;67.70;31.83;;;0.90;99.90;;;;;;10480981;28;20202;-78
2022/12/24 19:41:12;;;;;;;49.53;26.13;;;0.90;99.90;;;;;;10480773;28;20218;-78
2022/12/24 19:46:35;;;;;;;57.73;27.93;;;0.80;99.90;;;;;;10480384;28;20194;-79
2022/12/24 19:51:56;;;;;;;55.37;26.37;;;0.80;99.90;;;;;;10480243;28;20222;-78
2022/12/24 19:57:17;;;;;;;60.97;28.60;;;0.90;99.90;;;;;;10481219;28;20188;-78
2022/12/24 20:02:38;;;;;;;53.80;26.40;;;0.90;99.90;;;;;;10465460;28;20279;-79
2022/12/24 20:07:59;;;;;;;55.57;27.00;;;0.90;99.90;;;;;;10439649;28;20227;-78
2022/12/24 20:13:21;;;;;;;54.63;28.60;;;0.90;99.90;;;;;;10480293;28;20223;-78
2022/12/24 20:18:42;;;;;;;60.23;29.10;;;0.80;99.90;;;;;;10480120;28;20195;-78
2022/12/24 20:24:03;;;;;;;59.93;29.67;;;0.90;99.90;;;;;;10478834;28;20198;-79
2022/12/24 20:29:25;;;;;;;57.90;29.50;;;0.90;99.90;;;;;;10478672;28;20188;-78
2022/12/24 20:34:46;;;;;;;64.13;30.73;;;0.90;99.90;;;;;;10478526;28;20588;-78
2022/12/24 20:40:08;;;;;;;63.03;30.00;;;0.80;99.90;;;;;;10478117;28;20417;-78
2022/12/24 20:45:29;;;;;;;63.23;31.17;;;0.90;99.90;;;;;;10463932;28;20487;-78
2022/12/24 20:50:50;;;;;;;58.80;25.47;;;0.90;99.90;;;;;;10477489;28;20535;-78
2022/12/24 20:56:13;;;;;;;51.83;25.60;;;0.90;99.90;;;;;;10477951;28;20199;-78
2022/12/24 21:01:35;;;;;;;62.27;29.37;;;0.90;99.90;;;;;;10478762;28;20186;-78
2022/12/24 21:06:57;;;;;;;63.97;31.77;;;0.90;99.90;;;;;;10462529;28;20512;-79
2022/12/24 21:17:59;;;;;;;77.00;33.87;;;0.90;99.90;;;;;;10477410;28;20192;-78
2022/12/24 21:23:20;;;;;;;73.43;32.37;;;0.90;99.90;;;;;;10462536;28;20321;-78
2022/12/24 21:28:42;;;;;;;60.53;29.60;;;0.90;99.90;;;;;;10478135;28;20428;-78
2022/12/24 21:34:03;;;;;;;55.20;25.97;;;0.90;99.90;;;;;;10476882;28;20287;-78
2022/12/24 21:39:25;;;;;;;65.77;30.17;;;0.90;99.90;;;;;;10462667;28;20200;-78
2022/12/24 21:44:46;;;;;;;64.70;29.57;;;0.90;99.90;;;;;;10462678;28;20205;-78
2022/12/24 21:55:51;;;;;;;73.67;40.43;;;0.90;99.90;;;;;;10477609;28;20409;-78
2022/12/24 22:01:13;;;;;;;74.77;38.50;;;0.90;99.90;;;;;;10476338;28;20206;-78
2022/12/24 22:12:14;;;;;;;68.63;28.17;;;0.80;99.90;;;;;;10492252;28;20231;-78
2022/12/24 22:17:36;;;;;;;62.93;27.23;;;0.80;99.90;;;;;;10461664;28;20238;-79
2022/12/24 22:22:57;;;;;;;61.57;27.33;;;0.80;99.90;;;;;;10476082;28;20203;-77
2022/12/24 22:28:18;;;;;;;66.37;29.80;;;0.80;99.90;;;;;;10475814;28;20401;-79
2022/12/24 22:33:39;;;;;;;52.70;24.93;;;0.90;99.90;;;;;;10479244;28;20238;-78
2022/12/24 22:39:01;;;;;;;49.37;23.47;;;0.90;99.90;;;;;;10483027;28;20278;-78
2022/12/24 22:44:22;;;;;;;50.80;24.73;;;0.90;99.90;;;;;;10482827;28;20536;-78
2022/12/24 22:49:43;;;;;;;54.50;25.60;;;0.80;99.90;;;;;;10482568;28;20482;-78
2022/12/24 22:55:05;;;;;;;51.83;25.20;;;0.80;99.90;;;;;;10483406;28;20222;-78
2022/12/24 23:00:43;;;;;;;50.83;24.03;;;0.80;99.90;;;;;;10468006;28;20197;-78
2022/12/24 23:06:06;;;;;;;60.40;32.03;;;0.80;99.90;;;;;;10482806;28;20204;-78
2022/12/24 23:11:27;;;;;;;69.73;39.73;;;0.90;99.90;;;;;;10453406;28;20255;-78
2022/12/24 23:16:48;;;;;;;49.40;25.27;;;0.90;99.90;;;;;;10467316;28;20206;-78
2022/12/24 23:22:10;;;;;;;52.37;27.40;;;0.90;99.90;;;;;;10481628;28;20429;-78
2022/12/24 23:27:31;;;;;;;48.83;25.33;;;0.90;99.90;;;;;;10481073;28;20223;-79
2022/12/24 23:32:52;;;;;;;58.47;27.87;;;0.90;99.90;;;;;;10480563;28;20227;-79
2022/12/24 23:38:14;;;;;;;50.43;22.60;;;1.00;99.90;;;;;;10480550;28;20202;-78
2022/12/24 23:43:35;;;;;;;47.40;23.40;;;1.00;99.90;;;;;;10480434;28;20368;-78
2022/12/24 23:48:56;;;;;;;46.33;25.10;;;0.90;99.90;;;;;;10480151;28;20194;-78
2022/12/24 23:54:18;;;;;;;47.37;23.77;;;0.90;99.90;;;;;;10481294;28;20215;-78
2022/12/24 23:59:40;;;;;;;43.57;22.87;;;0.90;99.90;;;;;;10479841;28;20198;-78
